createdAt,value
2022-10-14T00:03:10.451Z,95.49
2022-10-14T00:13:10.474Z,95.29
2022-10-14T00:23:10.794Z,95.59
2022-10-14T00:33:10.831Z,94.98
2022-10-14T00:43:11.148Z,95.29
2022-10-14T00:53:11.178Z,95.39
2022-10-14T01:03:11.489Z,96.61
2022-10-14T01:13:11.549Z,97.42
2022-10-14T01:23:11.852Z,97.37
2022-10-14T01:33:11.886Z,97.27
2022-10-14T01:43:12.194Z,96.25
2022-10-14T01:53:12.226Z,96.15
2022-10-14T02:03:12.552Z,96.35
2022-10-14T02:13:12.625Z,95.53
2022-10-14T02:23:12.905Z,95.74
2022-10-14T02:33:12.921Z,96.35
2022-10-14T02:43:13.240Z,95.84
2022-10-14T02:53:13.261Z,96.39
2022-10-14T03:03:13.593Z,95.13
2022-10-14T03:13:13.629Z,94.52
2022-10-14T03:23:13.945Z,94.31
2022-10-14T03:33:15.246Z,93.70
2022-10-14T03:43:14.204Z,93.70
2022-10-14T03:53:14.434Z,91.97
2022-10-14T04:03:14.752Z,94.05
2022-10-14T04:13:14.780Z,96.03
2022-10-14T04:23:15.095Z,94.46
2022-10-14T04:33:15.118Z,94.46
2022-10-14T04:43:15.541Z,94.30
2022-10-14T04:53:19.686Z,94.50
2022-10-14T05:03:16.722Z,93.79
2022-10-14T05:13:15.966Z,94.09
2022-10-14T05:23:16.194Z,93.99
2022-10-14T05:33:16.515Z,93.89
2022-10-14T05:43:16.535Z,93.44
2022-10-14T05:53:16.870Z,93.85
2022-10-14T06:03:16.952Z,92.32
2022-10-14T06:13:17.110Z,91.46
2022-10-14T06:23:17.139Z,89.94
2022-10-14T06:33:17.461Z,91.26
2022-10-14T06:43:17.485Z,92.27
2022-10-14T06:53:17.712Z,92.38
2022-10-14T07:03:17.935Z,93.70
2022-10-14T07:13:18.267Z,92.94
2022-10-14T07:23:18.293Z,92.54
2022-10-14T07:33:18.613Z,92.44
2022-10-14T07:43:18.643Z,91.93
2022-10-14T07:53:19.071Z,92.09
2022-10-14T08:03:19.219Z,90.92
2022-10-14T08:13:19.312Z,88.95
2022-10-14T08:23:20.021Z,86.88
2022-10-14T08:33:19.571Z,85.82
2022-10-14T08:43:19.799Z,87.24
2022-10-14T08:53:20.122Z,87.55
2022-10-14T09:03:20.148Z,87.92
2022-10-14T09:13:20.483Z,87.30
2022-10-14T09:23:20.516Z,86.05
2022-10-14T09:33:20.839Z,85.24
2022-10-14T09:43:20.865Z,85.33
2022-10-14T09:53:21.183Z,87.77
2022-10-14T10:03:21.223Z,91.12
2022-10-14T10:13:21.516Z,89.03
2022-10-14T10:23:21.551Z,88.93
2022-10-14T10:33:21.871Z,89.74
2022-10-14T10:43:21.933Z,89.70
2022-10-14T10:53:22.217Z,90.20
2022-10-14T11:03:22.234Z,86.71
2022-10-14T11:13:22.567Z,86.41
2022-10-14T11:23:22.595Z,89.51
2022-10-14T11:33:22.919Z,87.40
2022-10-14T11:43:22.937Z,82.36
2022-10-14T11:53:23.285Z,82.49
2022-10-14T12:03:23.316Z,80.97
2022-10-14T12:13:23.617Z,80.00
2022-10-14T12:23:23.648Z,79.49
2022-10-14T12:33:24.993Z,79.11
2022-10-14T12:43:24.056Z,78.91
2022-10-14T12:53:24.329Z,81.78
2022-10-14T13:03:24.357Z,85.11
2022-10-14T13:13:27.545Z,83.03
2022-10-14T13:23:24.698Z,89.24
2022-10-14T13:33:25.029Z,90.66
2022-10-14T13:43:25.046Z,91.06
2022-10-14T13:53:25.368Z,90.66
2022-10-14T14:03:25.388Z,90.45
2022-10-14T14:13:25.713Z,92.58
2022-10-14T14:23:25.735Z,93.19
2022-10-14T14:33:26.054Z,91.20
2022-10-14T14:43:28.945Z,92.32
2022-10-14T14:53:27.183Z,94.49
2022-10-14T15:03:26.479Z,96.06
2022-10-14T15:13:26.588Z,97.42
2022-10-14T15:23:26.744Z,97.36
2022-10-14T15:33:26.773Z,95.28
2022-10-14T15:43:27.082Z,96.34
2022-10-14T15:53:27.110Z,96.19
2022-10-14T16:03:27.430Z,95.99
2022-10-14T16:13:27.459Z,97.00
2022-10-14T16:23:30.984Z,96.75
2022-10-14T16:33:27.950Z,97.81
2022-10-14T16:43:28.235Z,98.73
2022-10-14T16:53:28.263Z,99.04
2022-10-14T17:03:28.583Z,99.28
2022-10-14T17:13:28.606Z,98.88
2022-10-14T17:23:29.073Z,98.72
2022-10-14T17:33:29.102Z,99.02
2022-10-14T17:43:29.295Z,98.72
2022-10-14T17:53:29.318Z,99.13
2022-10-14T18:03:29.845Z,99.74
2022-10-14T18:13:30.115Z,99.43
2022-10-14T18:23:29.971Z,99.38
2022-10-14T18:33:30.041Z,98.66
2022-10-14T18:43:30.339Z,98.26
2022-10-14T18:53:30.469Z,98.05
2022-10-14T19:03:30.678Z,98.26
2022-10-14T19:13:30.997Z,98.56
2022-10-14T19:23:31.199Z,97.75
2022-10-14T19:33:31.287Z,97.14
2022-10-14T19:43:31.490Z,97.24
2022-10-14T19:53:31.528Z,97.65
2022-10-14T20:03:31.834Z,97.60
2022-10-14T20:13:31.853Z,97.29
2022-10-14T20:23:32.185Z,96.98
2022-10-14T20:33:32.219Z,97.19
2022-10-14T20:43:32.545Z,97.80
2022-10-14T20:53:32.626Z,98.10
2022-10-14T21:03:32.790Z,98.75
2022-10-14T21:13:32.850Z,97.44
2022-10-14T21:23:33.139Z,97.44
2022-10-14T21:33:33.156Z,98.05
2022-10-14T21:43:33.544Z,96.27
2022-10-14T21:53:33.677Z,97.29
2022-10-14T22:03:34.034Z,97.29
2022-10-14T22:13:33.883Z,97.08
2022-10-14T22:23:34.190Z,97.69
2022-10-14T22:33:34.221Z,97.89
2022-10-14T22:43:34.522Z,97.84
2022-10-14T22:53:34.552Z,96.52
2022-10-14T23:03:34.907Z,96.11
2022-10-14T23:13:34.928Z,96.11
2022-10-14T23:23:35.227Z,95.50
2022-10-14T23:33:35.341Z,95.50
2022-10-14T23:43:35.484Z,94.95
2022-10-14T23:53:35.507Z,96.01
